sensor_id;sensor_type;location;lat;lon;timestamp;P1;durP1;ratioP1;P2;durP2;ratioP2
18501;SDS011;68437;52.236;5.710;2024-02-16T00:00:26;12.20;;;4.35;;
18501;SDS011;68437;52.236;5.710;2024-02-16T00:02:56;9.25;;;3.78;;
18501;SDS011;68437;52.236;5.710;2024-02-16T00:05:24;7.45;;;3.90;;
18501;SDS011;68437;52.236;5.710;2024-02-16T00:07:51;13.10;;;4.22;;
18501;SDS011;68437;52.236;5.710;2024-02-16T00:10:21;6.53;;;3.55;;
18501;SDS011;68437;52.236;5.710;2024-02-16T00:12:47;10.73;;;4.20;;
18501;SDS011;68437;52.236;5.710;2024-02-16T00:15:14;7.53;;;3.75;;
18501;SDS011;68437;52.236;5.710;2024-02-16T00:17:41;12.93;;;4.22;;
18501;SDS011;68437;52.236;5.710;2024-02-16T00:20:08;9.98;;;3.88;;
18501;SDS011;68437;52.236;5.710;2024-02-16T00:22:37;7.93;;;3.88;;
18501;SDS011;68437;52.236;5.710;2024-02-16T00:25:04;8.15;;;3.38;;
18501;SDS011;68437;52.236;5.710;2024-02-16T00:27:33;11.65;;;3.80;;
18501;SDS011;68437;52.236;5.710;2024-02-16T00:30:00;10.88;;;3.60;;
18501;SDS011;68437;52.236;5.710;2024-02-16T00:32:28;8.20;;;3.65;;
18501;SDS011;68437;52.236;5.710;2024-02-16T00:34:56;8.68;;;3.70;;
18501;SDS011;68437;52.236;5.710;2024-02-16T00:37:24;8.98;;;3.50;;
18501;SDS011;68437;52.236;5.710;2024-02-16T00:39:51;11.63;;;4.05;;
18501;SDS011;68437;52.236;5.710;2024-02-16T00:42:19;9.23;;;4.00;;
18501;SDS011;68437;52.236;5.710;2024-02-16T00:44:48;9.75;;;3.70;;
18501;SDS011;68437;52.236;5.710;2024-02-16T00:47:14;8.15;;;3.97;;
18501;SDS011;68437;52.236;5.710;2024-02-16T00:49:42;9.63;;;3.83;;
18501;SDS011;68437;52.236;5.710;2024-02-16T00:52:09;10.45;;;4.13;;
18501;SDS011;68437;52.236;5.710;2024-02-16T00:54:36;11.82;;;4.10;;
18501;SDS011;68437;52.236;5.710;2024-02-16T00:57:08;12.15;;;4.13;;
18501;SDS011;68437;52.236;5.710;2024-02-16T00:59:34;9.90;;;4.18;;
18501;SDS011;68437;52.236;5.710;2024-02-16T01:02:02;11.45;;;4.60;;
18501;SDS011;68437;52.236;5.710;2024-02-16T01:04:29;8.70;;;4.15;;
18501;SDS011;68437;52.236;5.710;2024-02-16T01:06:56;7.32;;;4.18;;
18501;SDS011;68437;52.236;5.710;2024-02-16T01:09:23;6.82;;;3.67;;
18501;SDS011;68437;52.236;5.710;2024-02-16T01:11:50;11.23;;;4.43;;
18501;SDS011;68437;52.236;5.710;2024-02-16T01:14:17;9.38;;;4.55;;
18501;SDS011;68437;52.236;5.710;2024-02-16T01:16:44;10.85;;;4.45;;
18501;SDS011;68437;52.236;5.710;2024-02-16T01:19:13;9.77;;;4.47;;
18501;SDS011;68437;52.236;5.710;2024-02-16T01:21:39;11.85;;;4.75;;
18501;SDS011;68437;52.236;5.710;2024-02-16T01:24:06;9.93;;;4.28;;
18501;SDS011;68437;52.236;5.710;2024-02-16T01:26:34;9.77;;;4.18;;
18501;SDS011;68437;52.236;5.710;2024-02-16T01:29:00;15.70;;;4.20;;
18501;SDS011;68437;52.236;5.710;2024-02-16T01:31:27;10.25;;;4.72;;
18501;SDS011;68437;52.236;5.710;2024-02-16T01:33:54;10.13;;;4.40;;
18501;SDS011;68437;52.236;5.710;2024-02-16T01:36:22;10.55;;;4.68;;
18501;SDS011;68437;52.236;5.710;2024-02-16T01:38:49;8.80;;;4.30;;
18501;SDS011;68437;52.236;5.710;2024-02-16T01:41:16;7.32;;;4.40;;
18501;SDS011;68437;52.236;5.710;2024-02-16T01:43:43;10.00;;;4.82;;
18501;SDS011;68437;52.236;5.710;2024-02-16T01:46:10;9.23;;;4.00;;
18501;SDS011;68437;52.236;5.710;2024-02-16T01:48:37;10.10;;;4.40;;
18501;SDS011;68437;52.236;5.710;2024-02-16T01:51:05;10.88;;;4.88;;
18501;SDS011;68437;52.236;5.710;2024-02-16T01:53:34;8.60;;;4.80;;
18501;SDS011;68437;52.236;5.710;2024-02-16T01:56:02;11.18;;;4.65;;
18501;SDS011;68437;52.236;5.710;2024-02-16T01:58:29;10.88;;;4.70;;
18501;SDS011;68437;52.236;5.710;2024-02-16T02:01:02;11.95;;;4.97;;
18501;SDS011;68437;52.236;5.710;2024-02-16T02:03:29;12.18;;;5.25;;
18501;SDS011;68437;52.236;5.710;2024-02-16T02:05:56;9.20;;;4.75;;
18501;SDS011;68437;52.236;5.710;2024-02-16T02:08:22;12.98;;;5.10;;
18501;SDS011;68437;52.236;5.710;2024-02-16T02:10:51;9.65;;;4.80;;
18501;SDS011;68437;52.236;5.710;2024-02-16T02:13:17;9.68;;;4.45;;
18501;SDS011;68437;52.236;5.710;2024-02-16T02:15:46;9.27;;;4.88;;
18501;SDS011;68437;52.236;5.710;2024-02-16T02:18:13;8.38;;;4.80;;
18501;SDS011;68437;52.236;5.710;2024-02-16T02:20:40;11.25;;;5.20;;
18501;SDS011;68437;52.236;5.710;2024-02-16T02:23:09;8.77;;;4.60;;
18501;SDS011;68437;52.236;5.710;2024-02-16T02:25:35;13.25;;;4.60;;
18501;SDS011;68437;52.236;5.710;2024-02-16T02:28:02;10.75;;;4.82;;
18501;SDS011;68437;52.236;5.710;2024-02-16T02:30:31;12.13;;;4.95;;
18501;SDS011;68437;52.236;5.710;2024-02-16T02:32:58;11.55;;;4.78;;
18501;SDS011;68437;52.236;5.710;2024-02-16T02:35:24;9.25;;;4.93;;
18501;SDS011;68437;52.236;5.710;2024-02-16T02:37:51;9.60;;;5.05;;
18501;SDS011;68437;52.236;5.710;2024-02-16T02:40:20;12.15;;;4.80;;
18501;SDS011;68437;52.236;5.710;2024-02-16T02:42:47;10.93;;;4.88;;
18501;SDS011;68437;52.236;5.710;2024-02-16T02:45:13;9.82;;;4.68;;
18501;SDS011;68437;52.236;5.710;2024-02-16T02:47:40;12.43;;;5.00;;
18501;SDS011;68437;52.236;5.710;2024-02-16T02:50:08;10.90;;;4.65;;
18501;SDS011;68437;52.236;5.710;2024-02-16T02:52:35;8.20;;;4.80;;
18501;SDS011;68437;52.236;5.710;2024-02-16T02:55:02;10.70;;;4.63;;
18501;SDS011;68437;52.236;5.710;2024-02-16T02:57:31;11.50;;;4.45;;
18501;SDS011;68437;52.236;5.710;2024-02-16T03:00:02;10.15;;;4.55;;
18501;SDS011;68437;52.236;5.710;2024-02-16T03:02:31;11.02;;;4.70;;
18501;SDS011;68437;52.236;5.710;2024-02-16T03:04:57;11.57;;;4.43;;
18501;SDS011;68437;52.236;5.710;2024-02-16T03:07:25;11.73;;;4.90;;
18501;SDS011;68437;52.236;5.710;2024-02-16T03:09:52;11.65;;;5.28;;
18501;SDS011;68437;52.236;5.710;2024-02-16T03:12:19;11.20;;;4.95;;
18501;SDS011;68437;52.236;5.710;2024-02-16T03:14:47;10.50;;;5.30;;
18501;SDS011;68437;52.236;5.710;2024-02-16T03:17:14;11.18;;;4.95;;
18501;SDS011;68437;52.236;5.710;2024-02-16T03:19:40;9.75;;;4.95;;
18501;SDS011;68437;52.236;5.710;2024-02-16T03:22:07;11.00;;;5.10;;
18501;SDS011;68437;52.236;5.710;2024-02-16T03:24:34;9.10;;;4.82;;
18501;SDS011;68437;52.236;5.710;2024-02-16T03:27:04;8.30;;;4.80;;
18501;SDS011;68437;52.236;5.710;2024-02-16T03:29:31;15.40;;;4.78;;
18501;SDS011;68437;52.236;5.710;2024-02-16T03:31:59;10.45;;;4.68;;
18501;SDS011;68437;52.236;5.710;2024-02-16T03:34:26;10.57;;;4.88;;
18501;SDS011;68437;52.236;5.710;2024-02-16T03:36:52;9.25;;;4.72;;
18501;SDS011;68437;52.236;5.710;2024-02-16T03:39:20;11.27;;;5.20;;
18501;SDS011;68437;52.236;5.710;2024-02-16T03:41:47;10.20;;;5.18;;
18501;SDS011;68437;52.236;5.710;2024-02-16T03:44:14;9.98;;;5.03;;
18501;SDS011;68437;52.236;5.710;2024-02-16T03:46:41;10.32;;;4.90;;
18501;SDS011;68437;52.236;5.710;2024-02-16T03:49:10;10.23;;;5.10;;
18501;SDS011;68437;52.236;5.710;2024-02-16T03:51:36;8.88;;;4.90;;
18501;SDS011;68437;52.236;5.710;2024-02-16T03:54:03;12.73;;;5.78;;
18501;SDS011;68437;52.236;5.710;2024-02-16T03:56:30;8.98;;;5.20;;
18501;SDS011;68437;52.236;5.710;2024-02-16T03:58:57;15.20;;;5.32;;
18501;SDS011;68437;52.236;5.710;2024-02-16T04:01:24;11.85;;;4.90;;
18501;SDS011;68437;52.236;5.710;2024-02-16T04:03:51;9.68;;;4.90;;
18501;SDS011;68437;52.236;5.710;2024-02-16T04:06:19;14.48;;;5.75;;
18501;SDS011;68437;52.236;5.710;2024-02-16T04:08:46;10.73;;;5.53;;
18501;SDS011;68437;52.236;5.710;2024-02-16T04:11:13;12.48;;;5.20;;
18501;SDS011;68437;52.236;5.710;2024-02-16T04:13:41;9.98;;;5.63;;
18501;SDS011;68437;52.236;5.710;2024-02-16T04:16:10;9.32;;;5.30;;
18501;SDS011;68437;52.236;5.710;2024-02-16T04:18:37;10.65;;;5.30;;
18501;SDS011;68437;52.236;5.710;2024-02-16T04:21:04;10.70;;;5.47;;
18501;SDS011;68437;52.236;5.710;2024-02-16T04:23:32;12.15;;;5.40;;
18501;SDS011;68437;52.236;5.710;2024-02-16T04:25:59;11.98;;;5.60;;
18501;SDS011;68437;52.236;5.710;2024-02-16T04:28:26;12.93;;;5.30;;
18501;SDS011;68437;52.236;5.710;2024-02-16T04:30:52;9.57;;;5.20;;
18501;SDS011;68437;52.236;5.710;2024-02-16T04:33:19;10.90;;;5.53;;
18501;SDS011;68437;52.236;5.710;2024-02-16T04:35:46;12.13;;;5.40;;
18501;SDS011;68437;52.236;5.710;2024-02-16T04:38:15;11.55;;;5.18;;
18501;SDS011;68437;52.236;5.710;2024-02-16T04:40:43;10.43;;;5.55;;
18501;SDS011;68437;52.236;5.710;2024-02-16T04:43:10;10.82;;;5.60;;
18501;SDS011;68437;52.236;5.710;2024-02-16T04:45:37;14.10;;;5.40;;
18501;SDS011;68437;52.236;5.710;2024-02-16T04:48:04;19.58;;;9.07;;
18501;SDS011;68437;52.236;5.710;2024-02-16T04:50:32;21.77;;;11.25;;
18501;SDS011;68437;52.236;5.710;2024-02-16T04:53:02;15.43;;;8.10;;
18501;SDS011;68437;52.236;5.710;2024-02-16T04:55:29;14.10;;;7.03;;
18501;SDS011;68437;52.236;5.710;2024-02-16T04:57:57;10.07;;;5.90;;
18501;SDS011;68437;52.236;5.710;2024-02-16T05:00:24;11.57;;;7.28;;
18501;SDS011;68437;52.236;5.710;2024-02-16T05:02:52;12.52;;;6.68;;
18501;SDS011;68437;52.236;5.710;2024-02-16T05:05:19;10.63;;;6.50;;
18501;SDS011;68437;52.236;5.710;2024-02-16T05:07:48;12.52;;;5.85;;
18501;SDS011;68437;52.236;5.710;2024-02-16T05:10:15;12.55;;;5.95;;
18501;SDS011;68437;52.236;5.710;2024-02-16T05:12:42;9.60;;;5.18;;
18501;SDS011;68437;52.236;5.710;2024-02-16T05:15:10;10.07;;;5.85;;
18501;SDS011;68437;52.236;5.710;2024-02-16T05:17:38;14.82;;;6.00;;
18501;SDS011;68437;52.236;5.710;2024-02-16T05:20:08;10.13;;;5.35;;
18501;SDS011;68437;52.236;5.710;2024-02-16T05:22:40;10.60;;;5.65;;
18501;SDS011;68437;52.236;5.710;2024-02-16T05:25:08;11.13;;;5.57;;
18501;SDS011;68437;52.236;5.710;2024-02-16T05:27:35;13.75;;;5.82;;
18501;SDS011;68437;52.236;5.710;2024-02-16T05:30:03;10.25;;;5.93;;
18501;SDS011;68437;52.236;5.710;2024-02-16T05:32:34;11.40;;;5.70;;
18501;SDS011;68437;52.236;5.710;2024-02-16T05:35:01;12.05;;;5.63;;
18501;SDS011;68437;52.236;5.710;2024-02-16T05:37:29;10.18;;;5.50;;
18501;SDS011;68437;52.236;5.710;2024-02-16T05:39:58;11.52;;;5.57;;
18501;SDS011;68437;52.236;5.710;2024-02-16T05:42:33;12.88;;;6.10;;
18501;SDS011;68437;52.236;5.710;2024-02-16T05:45:00;9.63;;;5.80;;
18501;SDS011;68437;52.236;5.710;2024-02-16T05:47:27;13.30;;;5.63;;
18501;SDS011;68437;52.236;5.710;2024-02-16T05:49:55;13.45;;;5.88;;
18501;SDS011;68437;52.236;5.710;2024-02-16T05:52:23;11.48;;;5.80;;
18501;SDS011;68437;52.236;5.710;2024-02-16T05:54:50;10.75;;;5.30;;
18501;SDS011;68437;52.236;5.710;2024-02-16T05:57:18;15.65;;;6.15;;
18501;SDS011;68437;52.236;5.710;2024-02-16T05:59:44;12.70;;;5.70;;
18501;SDS011;68437;52.236;5.710;2024-02-16T06:02:11;14.70;;;7.00;;
18501;SDS011;68437;52.236;5.710;2024-02-16T06:04:38;11.63;;;6.22;;
18501;SDS011;68437;52.236;5.710;2024-02-16T06:07:07;12.95;;;6.68;;
18501;SDS011;68437;52.236;5.710;2024-02-16T06:09:34;14.32;;;6.05;;
18501;SDS011;68437;52.236;5.710;2024-02-16T06:12:02;14.02;;;6.40;;
18501;SDS011;68437;52.236;5.710;2024-02-16T06:14:32;12.23;;;6.38;;
18501;SDS011;68437;52.236;5.710;2024-02-16T06:16:59;15.82;;;6.43;;
18501;SDS011;68437;52.236;5.710;2024-02-16T06:19:26;10.70;;;6.03;;
18501;SDS011;68437;52.236;5.710;2024-02-16T06:21:55;12.88;;;6.45;;
18501;SDS011;68437;52.236;5.710;2024-02-16T06:24:23;13.13;;;5.88;;
18501;SDS011;68437;52.236;5.710;2024-02-16T06:26:50;13.68;;;6.38;;
18501;SDS011;68437;52.236;5.710;2024-02-16T06:29:18;12.90;;;6.35;;
18501;SDS011;68437;52.236;5.710;2024-02-16T06:31:45;10.75;;;6.25;;
18501;SDS011;68437;52.236;5.710;2024-02-16T06:34:12;11.85;;;6.22;;
18501;SDS011;68437;52.236;5.710;2024-02-16T06:36:39;11.77;;;6.50;;
18501;SDS011;68437;52.236;5.710;2024-02-16T06:39:06;13.63;;;6.18;;
18501;SDS011;68437;52.236;5.710;2024-02-16T06:41:34;11.80;;;6.80;;
18501;SDS011;68437;52.236;5.710;2024-02-16T06:44:02;14.15;;;6.63;;
18501;SDS011;68437;52.236;5.710;2024-02-16T06:46:30;13.05;;;6.32;;
18501;SDS011;68437;52.236;5.710;2024-02-16T06:48:57;12.63;;;6.28;;
18501;SDS011;68437;52.236;5.710;2024-02-16T06:51:23;10.73;;;6.35;;
18501;SDS011;68437;52.236;5.710;2024-02-16T06:53:51;11.02;;;6.28;;
18501;SDS011;68437;52.236;5.710;2024-02-16T06:56:18;12.00;;;6.60;;
18501;SDS011;68437;52.236;5.710;2024-02-16T06:58:46;11.98;;;6.35;;
18501;SDS011;68437;52.236;5.710;2024-02-16T07:01:14;13.07;;;6.35;;
18501;SDS011;68437;52.236;5.710;2024-02-16T07:03:42;11.43;;;6.25;;
18501;SDS011;68437;52.236;5.710;2024-02-16T07:06:15;13.18;;;6.03;;
18501;SDS011;68437;52.236;5.710;2024-02-16T07:08:45;10.48;;;5.95;;
18501;SDS011;68437;52.236;5.710;2024-02-16T07:11:14;11.52;;;6.13;;
18501;SDS011;68437;52.236;5.710;2024-02-16T07:13:41;10.38;;;5.97;;
18501;SDS011;68437;52.236;5.710;2024-02-16T07:16:10;11.73;;;5.65;;
18501;SDS011;68437;52.236;5.710;2024-02-16T07:18:36;11.00;;;6.05;;
18501;SDS011;68437;52.236;5.710;2024-02-16T07:21:03;12.18;;;5.93;;
18501;SDS011;68437;52.236;5.710;2024-02-16T07:23:30;11.77;;;5.55;;
18501;SDS011;68437;52.236;5.710;2024-02-16T07:25:57;11.05;;;5.60;;
18501;SDS011;68437;52.236;5.710;2024-02-16T07:28:24;11.05;;;5.90;;
18501;SDS011;68437;52.236;5.710;2024-02-16T07:30:51;10.73;;;6.13;;
18501;SDS011;68437;52.236;5.710;2024-02-16T07:33:20;12.30;;;6.07;;
18501;SDS011;68437;52.236;5.710;2024-02-16T07:35:49;9.98;;;5.97;;
18501;SDS011;68437;52.236;5.710;2024-02-16T07:38:16;12.80;;;5.95;;
18501;SDS011;68437;52.236;5.710;2024-02-16T07:40:43;11.65;;;5.97;;
18501;SDS011;68437;52.236;5.710;2024-02-16T07:43:10;9.90;;;5.85;;
18501;SDS011;68437;52.236;5.710;2024-02-16T07:45:37;12.80;;;6.55;;
18501;SDS011;68437;52.236;5.710;2024-02-16T07:48:05;13.88;;;6.82;;
18501;SDS011;68437;52.236;5.710;2024-02-16T07:50:34;16.15;;;6.45;;
18501;SDS011;68437;52.236;5.710;2024-02-16T07:53:00;11.48;;;6.10;;
18501;SDS011;68437;52.236;5.710;2024-02-16T07:55:27;11.18;;;6.15;;
18501;SDS011;68437;52.236;5.710;2024-02-16T07:57:54;10.90;;;6.18;;
18501;SDS011;68437;52.236;5.710;2024-02-16T08:00:21;13.07;;;6.40;;
18501;SDS011;68437;52.236;5.710;2024-02-16T08:02:51;12.07;;;6.10;;
18501;SDS011;68437;52.236;5.710;2024-02-16T08:05:18;10.32;;;6.20;;
18501;SDS011;68437;52.236;5.710;2024-02-16T08:07:46;15.38;;;6.88;;
18501;SDS011;68437;52.236;5.710;2024-02-16T08:10:13;12.60;;;6.30;;
18501;SDS011;68437;52.236;5.710;2024-02-16T08:12:41;10.98;;;6.53;;
18501;SDS011;68437;52.236;5.710;2024-02-16T08:15:08;13.40;;;6.50;;
18501;SDS011;68437;52.236;5.710;2024-02-16T08:17:36;11.65;;;6.25;;
18501;SDS011;68437;52.236;5.710;2024-02-16T08:20:03;13.75;;;6.45;;
18501;SDS011;68437;52.236;5.710;2024-02-16T08:22:30;11.60;;;6.63;;
18501;SDS011;68437;52.236;5.710;2024-02-16T08:25:01;11.23;;;6.78;;
18501;SDS011;68437;52.236;5.710;2024-02-16T08:27:28;15.82;;;6.82;;
18501;SDS011;68437;52.236;5.710;2024-02-16T08:29:54;11.35;;;6.78;;
18501;SDS011;68437;52.236;5.710;2024-02-16T08:32:22;14.75;;;6.70;;
18501;SDS011;68437;52.236;5.710;2024-02-16T08:34:49;14.13;;;6.70;;
18501;SDS011;68437;52.236;5.710;2024-02-16T08:37:17;14.05;;;6.35;;
18501;SDS011;68437;52.236;5.710;2024-02-16T08:39:44;14.13;;;6.90;;
18501;SDS011;68437;52.236;5.710;2024-02-16T08:42:12;11.93;;;7.20;;
18501;SDS011;68437;52.236;5.710;2024-02-16T08:44:39;17.75;;;7.20;;
18501;SDS011;68437;52.236;5.710;2024-02-16T08:47:13;13.38;;;6.85;;
18501;SDS011;68437;52.236;5.710;2024-02-16T08:49:40;15.02;;;6.63;;
18501;SDS011;68437;52.236;5.710;2024-02-16T08:52:12;13.63;;;7.00;;
18501;SDS011;68437;52.236;5.710;2024-02-16T08:54:39;13.80;;;6.43;;
18501;SDS011;68437;52.236;5.710;2024-02-16T08:57:06;12.05;;;6.15;;
18501;SDS011;68437;52.236;5.710;2024-02-16T08:59:34;11.65;;;6.70;;
18501;SDS011;68437;52.236;5.710;2024-02-16T09:02:00;12.93;;;7.20;;
18501;SDS011;68437;52.236;5.710;2024-02-16T09:04:27;13.88;;;6.75;;
18501;SDS011;68437;52.236;5.710;2024-02-16T09:06:54;14.50;;;6.88;;
18501;SDS011;68437;52.236;5.710;2024-02-16T09:09:21;14.90;;;6.93;;
18501;SDS011;68437;52.236;5.710;2024-02-16T09:11:48;16.75;;;7.07;;
18501;SDS011;68437;52.236;5.710;2024-02-16T09:14:15;17.70;;;7.03;;
18501;SDS011;68437;52.236;5.710;2024-02-16T09:16:43;13.95;;;7.15;;
18501;SDS011;68437;52.236;5.710;2024-02-16T09:19:10;14.07;;;6.72;;
18501;SDS011;68437;52.236;5.710;2024-02-16T09:21:37;16.27;;;6.90;;
18501;SDS011;68437;52.236;5.710;2024-02-16T09:24:04;13.80;;;6.70;;
18501;SDS011;68437;52.236;5.710;2024-02-16T09:26:35;17.05;;;6.63;;
18501;SDS011;68437;52.236;5.710;2024-02-16T09:29:02;21.10;;;7.78;;
18501;SDS011;68437;52.236;5.710;2024-02-16T09:31:29;18.10;;;8.15;;
18501;SDS011;68437;52.236;5.710;2024-02-16T09:33:57;14.65;;;7.25;;
18501;SDS011;68437;52.236;5.710;2024-02-16T09:36:26;14.27;;;7.18;;
18501;SDS011;68437;52.236;5.710;2024-02-16T09:38:53;13.98;;;7.10;;
18501;SDS011;68437;52.236;5.710;2024-02-16T09:41:20;24.77;;;7.43;;
18501;SDS011;68437;52.236;5.710;2024-02-16T09:43:47;14.38;;;7.55;;
18501;SDS011;68437;52.236;5.710;2024-02-16T09:46:13;13.10;;;6.95;;
18501;SDS011;68437;52.236;5.710;2024-02-16T09:48:42;15.63;;;7.88;;
18501;SDS011;68437;52.236;5.710;2024-02-16T09:51:14;19.50;;;11.73;;
18501;SDS011;68437;52.236;5.710;2024-02-16T09:53:42;22.80;;;13.73;;
18501;SDS011;68437;52.236;5.710;2024-02-16T09:56:09;19.20;;;12.25;;
18501;SDS011;68437;52.236;5.710;2024-02-16T09:58:35;18.58;;;9.75;;
18501;SDS011;68437;52.236;5.710;2024-02-16T10:01:02;18.00;;;9.52;;
18501;SDS011;68437;52.236;5.710;2024-02-16T10:03:30;19.92;;;10.70;;
18501;SDS011;68437;52.236;5.710;2024-02-16T10:06:08;19.00;;;10.43;;
18501;SDS011;68437;52.236;5.710;2024-02-16T10:08:48;19.35;;;10.40;;
18501;SDS011;68437;52.236;5.710;2024-02-16T10:11:15;22.92;;;10.50;;
18501;SDS011;68437;52.236;5.710;2024-02-16T10:13:53;20.95;;;9.93;;
18501;SDS011;68437;52.236;5.710;2024-02-16T10:16:20;20.58;;;8.95;;
18501;SDS011;68437;52.236;5.710;2024-02-16T10:18:47;15.75;;;8.57;;
18501;SDS011;68437;52.236;5.710;2024-02-16T10:21:23;18.58;;;10.02;;
18501;SDS011;68437;52.236;5.710;2024-02-16T10:23:59;19.42;;;9.20;;
18501;SDS011;68437;52.236;5.710;2024-02-16T10:26:27;19.20;;;9.50;;
18501;SDS011;68437;52.236;5.710;2024-02-16T10:28:55;18.15;;;9.98;;
18501;SDS011;68437;52.236;5.710;2024-02-16T10:31:23;18.20;;;10.43;;
18501;SDS011;68437;52.236;5.710;2024-02-16T10:33:56;27.10;;;12.10;;
18501;SDS011;68437;52.236;5.710;2024-02-16T10:36:24;23.35;;;11.55;;
18501;SDS011;68437;52.236;5.710;2024-02-16T10:38:54;25.17;;;11.75;;
18501;SDS011;68437;52.236;5.710;2024-02-16T10:41:25;26.17;;;12.18;;
18501;SDS011;68437;52.236;5.710;2024-02-16T10:43:54;27.42;;;13.55;;
18501;SDS011;68437;52.236;5.710;2024-02-16T10:46:21;24.75;;;15.02;;
18501;SDS011;68437;52.236;5.710;2024-02-16T10:48:49;27.40;;;15.38;;
18501;SDS011;68437;52.236;5.710;2024-02-16T10:51:17;31.42;;;16.83;;
18501;SDS011;68437;52.236;5.710;2024-02-16T10:53:47;34.80;;;18.20;;
18501;SDS011;68437;52.236;5.710;2024-02-16T10:56:26;27.45;;;14.55;;
18501;SDS011;68437;52.236;5.710;2024-02-16T10:58:59;27.30;;;14.77;;
18501;SDS011;68437;52.236;5.710;2024-02-16T11:01:36;26.05;;;14.50;;
18501;SDS011;68437;52.236;5.710;2024-02-16T11:04:04;28.05;;;15.75;;
18501;SDS011;68437;52.236;5.710;2024-02-16T11:06:44;29.60;;;16.38;;
18501;SDS011;68437;52.236;5.710;2024-02-16T11:09:22;28.10;;;16.08;;
18501;SDS011;68437;52.236;5.710;2024-02-16T11:11:53;30.80;;;16.70;;
18501;SDS011;68437;52.236;5.710;2024-02-16T11:14:21;35.75;;;17.88;;
18501;SDS011;68437;52.236;5.710;2024-02-16T11:16:49;31.67;;;17.13;;
18501;SDS011;68437;52.236;5.710;2024-02-16T11:19:22;31.10;;;18.48;;
18501;SDS011;68437;52.236;5.710;2024-02-16T11:21:55;47.33;;;26.77;;
18501;SDS011;68437;52.236;5.710;2024-02-16T11:24:31;45.72;;;24.92;;
18501;SDS011;68437;52.236;5.710;2024-02-16T11:27:02;53.25;;;29.13;;
18501;SDS011;68437;52.236;5.710;2024-02-16T11:29:31;71.30;;;39.45;;
18501;SDS011;68437;52.236;5.710;2024-02-16T11:31:58;45.00;;;26.30;;
18501;SDS011;68437;52.236;5.710;2024-02-16T11:34:27;32.80;;;19.05;;
18501;SDS011;68437;52.236;5.710;2024-02-16T11:36:54;41.92;;;21.40;;
18501;SDS011;68437;52.236;5.710;2024-02-16T11:39:23;42.60;;;21.95;;
18501;SDS011;68437;52.236;5.710;2024-02-16T11:41:58;38.85;;;20.98;;
18501;SDS011;68437;52.236;5.710;2024-02-16T11:44:28;39.70;;;23.33;;
18501;SDS011;68437;52.236;5.710;2024-02-16T11:46:56;42.20;;;25.27;;
18501;SDS011;68437;52.236;5.710;2024-02-16T11:49:24;39.17;;;21.77;;
18501;SDS011;68437;52.236;5.710;2024-02-16T11:51:50;41.38;;;22.02;;
18501;SDS011;68437;52.236;5.710;2024-02-16T11:54:20;39.38;;;20.75;;
18501;SDS011;68437;52.236;5.710;2024-02-16T11:56:49;35.58;;;20.85;;
18501;SDS011;68437;52.236;5.710;2024-02-16T11:59:17;37.90;;;21.45;;
18501;SDS011;68437;52.236;5.710;2024-02-16T12:01:49;46.05;;;24.65;;
18501;SDS011;68437;52.236;5.710;2024-02-16T12:04:20;35.33;;;21.73;;
18501;SDS011;68437;52.236;5.710;2024-02-16T12:06:49;38.58;;;22.00;;
18501;SDS011;68437;52.236;5.710;2024-02-16T12:09:19;35.22;;;20.58;;
18501;SDS011;68437;52.236;5.710;2024-02-16T12:11:47;38.55;;;21.25;;
18501;SDS011;68437;52.236;5.710;2024-02-16T12:14:15;37.63;;;20.05;;
18501;SDS011;68437;52.236;5.710;2024-02-16T12:16:46;31.13;;;19.90;;
18501;SDS011;68437;52.236;5.710;2024-02-16T12:19:16;37.47;;;19.63;;
18501;SDS011;68437;52.236;5.710;2024-02-16T12:21:47;34.80;;;19.88;;
18501;SDS011;68437;52.236;5.710;2024-02-16T12:24:14;34.75;;;19.45;;
18501;SDS011;68437;52.236;5.710;2024-02-16T12:26:41;35.15;;;19.95;;
18501;SDS011;68437;52.236;5.710;2024-02-16T12:29:08;33.70;;;19.17;;
18501;SDS011;68437;52.236;5.710;2024-02-16T12:31:37;33.47;;;18.88;;
18501;SDS011;68437;52.236;5.710;2024-02-16T12:34:05;34.78;;;18.80;;
18501;SDS011;68437;52.236;5.710;2024-02-16T12:36:34;35.58;;;19.48;;
18501;SDS011;68437;52.236;5.710;2024-02-16T12:39:01;33.83;;;18.58;;
18501;SDS011;68437;52.236;5.710;2024-02-16T12:41:28;33.53;;;19.30;;
18501;SDS011;68437;52.236;5.710;2024-02-16T12:43:56;36.53;;;19.60;;
18501;SDS011;68437;52.236;5.710;2024-02-16T12:46:22;30.17;;;18.02;;
18501;SDS011;68437;52.236;5.710;2024-02-16T12:48:49;33.35;;;17.27;;
18501;SDS011;68437;52.236;5.710;2024-02-16T12:51:17;34.00;;;16.73;;
18501;SDS011;68437;52.236;5.710;2024-02-16T12:53:45;27.45;;;14.25;;
18501;SDS011;68437;52.236;5.710;2024-02-16T12:56:12;27.77;;;13.93;;
18501;SDS011;68437;52.236;5.710;2024-02-16T12:58:39;27.27;;;14.18;;
18501;SDS011;68437;52.236;5.710;2024-02-16T13:01:06;24.42;;;12.98;;
18501;SDS011;68437;52.236;5.710;2024-02-16T13:03:33;20.10;;;11.25;;
18501;SDS011;68437;52.236;5.710;2024-02-16T13:06:00;18.48;;;10.15;;
18501;SDS011;68437;52.236;5.710;2024-02-16T13:08:27;21.88;;;10.65;;
18501;SDS011;68437;52.236;5.710;2024-02-16T13:10:56;13.95;;;8.10;;
18501;SDS011;68437;52.236;5.710;2024-02-16T13:13:23;13.57;;;8.60;;
18501;SDS011;68437;52.236;5.710;2024-02-16T13:15:50;13.80;;;8.32;;
18501;SDS011;68437;52.236;5.710;2024-02-16T13:18:17;14.80;;;8.40;;
18501;SDS011;68437;52.236;5.710;2024-02-16T13:20:44;15.00;;;8.68;;
18501;SDS011;68437;52.236;5.710;2024-02-16T13:23:12;15.90;;;9.18;;
18501;SDS011;68437;52.236;5.710;2024-02-16T13:25:39;16.75;;;9.70;;
18501;SDS011;68437;52.236;5.710;2024-02-16T13:28:07;14.63;;;9.18;;
18501;SDS011;68437;52.236;5.710;2024-02-16T13:30:34;16.20;;;9.50;;
18501;SDS011;68437;52.236;5.710;2024-02-16T13:33:00;16.00;;;9.30;;
18501;SDS011;68437;52.236;5.710;2024-02-16T13:35:27;16.05;;;9.40;;
18501;SDS011;68437;52.236;5.710;2024-02-16T13:37:55;22.25;;;11.00;;
18501;SDS011;68437;52.236;5.710;2024-02-16T13:40:22;14.63;;;9.38;;
18501;SDS011;68437;52.236;5.710;2024-02-16T13:42:49;17.10;;;10.13;;
18501;SDS011;68437;52.236;5.710;2024-02-16T13:45:21;17.98;;;10.63;;
18501;SDS011;68437;52.236;5.710;2024-02-16T13:47:50;14.13;;;9.75;;
18501;SDS011;68437;52.236;5.710;2024-02-16T13:50:17;14.57;;;10.18;;
18501;SDS011;68437;52.236;5.710;2024-02-16T13:52:45;16.58;;;10.60;;
18501;SDS011;68437;52.236;5.710;2024-02-16T13:55:12;15.68;;;10.00;;
18501;SDS011;68437;52.236;5.710;2024-02-16T13:57:39;14.93;;;10.40;;
18501;SDS011;68437;52.236;5.710;2024-02-16T14:00:06;16.27;;;11.25;;
18501;SDS011;68437;52.236;5.710;2024-02-16T14:02:35;15.43;;;10.93;;
18501;SDS011;68437;52.236;5.710;2024-02-16T14:05:02;15.18;;;10.50;;
18501;SDS011;68437;52.236;5.710;2024-02-16T14:07:30;13.50;;;10.20;;
18501;SDS011;68437;52.236;5.710;2024-02-16T14:09:57;17.05;;;10.85;;
18501;SDS011;68437;52.236;5.710;2024-02-16T14:12:24;13.93;;;9.63;;
18501;SDS011;68437;52.236;5.710;2024-02-16T14:14:54;14.38;;;10.13;;
18501;SDS011;68437;52.236;5.710;2024-02-16T14:17:20;13.43;;;9.10;;
18501;SDS011;68437;52.236;5.710;2024-02-16T14:19:49;13.60;;;9.02;;
18501;SDS011;68437;52.236;5.710;2024-02-16T14:22:18;11.40;;;8.25;;
18501;SDS011;68437;52.236;5.710;2024-02-16T14:24:45;11.18;;;7.70;;
18501;SDS011;68437;52.236;5.710;2024-02-16T14:27:12;10.80;;;7.22;;
18501;SDS011;68437;52.236;5.710;2024-02-16T14:29:38;11.23;;;6.70;;
18501;SDS011;68437;52.236;5.710;2024-02-16T14:32:08;9.82;;;7.43;;
18501;SDS011;68437;52.236;5.710;2024-02-16T14:34:35;11.02;;;6.65;;
18501;SDS011;68437;52.236;5.710;2024-02-16T14:37:03;10.32;;;6.32;;